createdAt,value
2017-09-30T00:00:11.811Z,28.80
2017-09-30T00:02:39.315Z,27.20
2017-09-30T00:05:06.816Z,27.27
2017-09-30T00:07:34.332Z,29.77
2017-09-30T00:10:01.831Z,28.83
2017-09-30T00:12:29.330Z,29.80
2017-09-30T00:14:57.588Z,29.93
2017-09-30T00:17:25.870Z,28.37
2017-09-30T00:19:53.364Z,29.83
2017-09-30T00:22:20.892Z,30.73
2017-09-30T00:24:48.388Z,31.60
2017-09-30T00:27:15.920Z,32.67
2017-09-30T00:29:44.195Z,30.80
2017-09-30T00:32:11.766Z,32.07
2017-09-30T00:34:39.268Z,31.20
2017-09-30T00:37:07.546Z,33.50
2017-09-30T00:39:35.048Z,32.30
2017-09-30T00:42:02.557Z,31.40
2017-09-30T00:44:30.049Z,29.80
2017-09-30T00:46:57.541Z,32.50
2017-09-30T00:49:25.052Z,31.60
2017-09-30T00:51:52.554Z,34.47
2017-09-30T00:54:20.069Z,31.90
2017-09-30T00:56:47.556Z,30.17
2017-09-30T00:59:15.073Z,31.43
2017-09-30T01:01:42.573Z,33.30
2017-09-30T01:04:11.651Z,31.90
2017-09-30T01:06:39.187Z,30.93
2017-09-30T01:09:07.465Z,36.57
2017-09-30T01:11:34.953Z,36.20
2017-09-30T01:14:02.462Z,33.83
2017-09-30T01:16:29.960Z,34.73
2017-09-30T01:18:57.476Z,32.93
2017-09-30T01:21:30.260Z,33.50
2017-09-30T01:23:57.767Z,35.47
2017-09-30T01:26:25.249Z,35.90
2017-09-30T01:28:52.755Z,35.57
2017-09-30T01:31:20.243Z,32.53
2017-09-30T01:33:47.756Z,34.37
2017-09-30T01:36:15.256Z,34.87
2017-09-30T01:38:42.764Z,35.03
2017-09-30T01:41:10.254Z,34.40
2017-09-30T01:43:37.772Z,34.00
2017-09-30T01:46:05.267Z,32.53
2017-09-30T01:48:32.753Z,37.43
2017-09-30T01:51:01.034Z,32.80
2017-09-30T01:53:28.520Z,33.17
2017-09-30T01:55:56.029Z,33.73
2017-09-30T01:58:23.532Z,30.30
2017-09-30T02:00:51.821Z,29.07
2017-09-30T02:03:19.312Z,29.93
2017-09-30T02:05:46.826Z,27.83
2017-09-30T02:08:14.325Z,27.23
2017-09-30T02:10:41.849Z,27.57
2017-09-30T02:13:09.336Z,31.10
2017-09-30T02:15:36.843Z,29.43
2017-09-30T02:18:04.340Z,30.70
2017-09-30T02:20:31.859Z,30.40
2017-09-30T02:22:59.348Z,33.87
2017-09-30T02:25:26.859Z,31.57
2017-09-30T02:27:54.347Z,35.20
2017-09-30T02:30:21.852Z,37.70
2017-09-30T02:32:49.352Z,33.73
2017-09-30T02:35:17.625Z,35.47
2017-09-30T02:37:45.117Z,34.97
2017-09-30T02:40:12.636Z,35.33
2017-09-30T02:42:40.136Z,36.37
2017-09-30T02:45:08.417Z,34.07
2017-09-30T02:47:35.907Z,30.53
2017-09-30T02:50:03.428Z,34.27
2017-09-30T02:52:30.920Z,32.10
2017-09-30T02:54:59.185Z,33.27
2017-09-30T02:57:26.690Z,32.03
2017-09-30T02:59:54.179Z,30.90
2017-09-30T03:02:21.689Z,29.17
2017-09-30T03:04:49.191Z,29.80
2017-09-30T03:07:16.703Z,33.47
2017-09-30T03:09:44.961Z,31.13
2017-09-30T03:12:13.238Z,30.70
2017-09-30T03:14:40.801Z,31.93
2017-09-30T03:17:08.312Z,34.73
2017-09-30T03:19:35.804Z,30.43
2017-09-30T03:22:03.321Z,32.30
2017-09-30T03:24:30.806Z,31.80
2017-09-30T03:26:58.332Z,30.50
2017-09-30T03:29:25.820Z,32.07
2017-09-30T03:31:53.338Z,31.10
2017-09-30T03:34:20.838Z,31.23
2017-09-30T03:36:49.125Z,35.03
2017-09-30T03:39:16.621Z,34.33
2017-09-30T03:41:44.145Z,35.37
2017-09-30T03:44:12.453Z,33.40
2017-09-30T03:46:39.966Z,34.20
2017-09-30T03:49:07.469Z,29.60
2017-09-30T03:51:35.779Z,30.53
2017-09-30T03:54:03.264Z,32.57
2017-09-30T03:56:30.767Z,32.73
2017-09-30T03:58:58.288Z,31.70
2017-09-30T04:01:25.783Z,31.70
2017-09-30T04:03:53.306Z,31.10
2017-09-30T04:06:20.850Z,32.00
2017-09-30T04:08:48.360Z,32.40
2017-09-30T04:11:15.859Z,34.77
2017-09-30T04:13:43.369Z,54.03
2017-09-30T04:16:11.885Z,54.30
2017-09-30T04:18:39.400Z,35.87
2017-09-30T04:21:06.886Z,33.87
2017-09-30T04:23:35.170Z,31.13
2017-09-30T04:26:02.675Z,30.03
2017-09-30T04:28:30.180Z,37.23
2017-09-30T04:30:57.668Z,38.97
2017-09-30T04:33:25.180Z,54.70
2017-09-30T04:35:52.671Z,43.70
2017-09-30T04:38:20.191Z,41.90
2017-09-30T04:40:47.687Z,33.37
2017-09-30T04:43:15.195Z,36.90
2017-09-30T04:45:43.457Z,33.20
2017-09-30T04:48:11.762Z,35.07
2017-09-30T04:50:39.260Z,36.17
2017-09-30T04:53:07.563Z,35.87
2017-09-30T04:55:35.051Z,49.37
2017-09-30T04:58:02.548Z,54.33
2017-09-30T05:00:30.164Z,34.30
2017-09-30T05:02:57.688Z,32.80
2017-09-30T05:05:25.202Z,30.53
2017-09-30T05:07:52.695Z,33.07
2017-09-30T05:10:20.208Z,29.77
2017-09-30T05:12:47.690Z,32.10
2017-09-30T05:15:15.967Z,36.10
2017-09-30T05:17:43.484Z,30.73
2017-09-30T05:20:11.152Z,34.50
2017-09-30T05:22:38.640Z,35.33
2017-09-30T05:25:06.174Z,34.37
2017-09-30T05:27:33.690Z,36.10
2017-09-30T05:30:01.196Z,33.17
2017-09-30T05:32:28.685Z,31.20
2017-09-30T05:34:56.183Z,33.83
2017-09-30T05:37:23.664Z,31.80
2017-09-30T05:39:51.182Z,33.50
2017-09-30T05:42:18.671Z,34.10
2017-09-30T05:44:46.202Z,36.70
2017-09-30T05:47:13.681Z,38.40
2017-09-30T05:49:41.963Z,33.63
2017-09-30T05:52:09.453Z,33.93
2017-09-30T05:54:36.980Z,37.83
2017-09-30T05:57:04.472Z,32.83
2017-09-30T05:59:32.727Z,29.93
2017-09-30T06:02:01.125Z,33.40
2017-09-30T06:04:29.392Z,31.90
2017-09-30T06:06:56.898Z,31.33
2017-09-30T06:09:25.158Z,30.50
2017-09-30T06:11:53.442Z,29.90
2017-09-30T06:14:20.940Z,33.07
2017-09-30T06:16:49.482Z,32.33
2017-09-30T06:19:17.008Z,30.30
2017-09-30T06:21:45.277Z,29.70
2017-09-30T06:24:12.779Z,29.20
2017-09-30T06:26:41.066Z,33.53
2017-09-30T06:29:08.555Z,27.63
2017-09-30T06:31:36.077Z,27.43
2017-09-30T06:34:03.578Z,30.40
2017-09-30T06:36:31.089Z,27.63
2017-09-30T06:38:58.576Z,28.83
2017-09-30T06:41:26.088Z,28.03
2017-09-30T06:43:54.353Z,29.53
2017-09-30T06:46:22.692Z,29.63
2017-09-30T06:48:50.187Z,28.60
2017-09-30T06:51:17.691Z,30.13
2017-09-30T06:53:45.964Z,29.27
2017-09-30T06:56:13.840Z,29.80
2017-09-30T06:58:41.333Z,33.23
2017-09-30T07:01:08.825Z,35.23
2017-09-30T07:03:36.332Z,31.10
2017-09-30T07:06:04.615Z,31.80
2017-09-30T07:08:32.136Z,31.90
2017-09-30T07:11:00.395Z,36.43
2017-09-30T07:13:28.680Z,30.50
2017-09-30T07:15:56.175Z,28.20
2017-09-30T07:18:23.918Z,30.30
2017-09-30T07:20:51.407Z,34.70
2017-09-30T07:23:18.919Z,28.63
2017-09-30T07:25:46.403Z,27.90
2017-09-30T07:28:13.929Z,29.03
2017-09-30T07:30:42.204Z,27.53
2017-09-30T07:33:10.558Z,27.70
2017-09-30T07:35:38.483Z,28.80
2017-09-30T07:38:05.996Z,29.63
2017-09-30T07:40:33.502Z,33.07
2017-09-30T07:43:01.063Z,28.17
2017-09-30T07:45:31.926Z,28.27
2017-09-30T07:47:59.453Z,26.20
2017-09-30T07:50:26.957Z,26.97
2017-09-30T07:53:09.156Z,27.13
2017-09-30T07:55:38.736Z,27.47
2017-09-30T07:58:06.285Z,32.60
2017-09-30T08:00:33.800Z,27.90
2017-09-30T08:03:01.616Z,29.23
2017-09-30T08:05:29.284Z,23.80
2017-09-30T08:07:56.885Z,23.73
2017-09-30T08:10:24.387Z,25.70
2017-09-30T08:12:51.877Z,22.20
2017-09-30T08:15:19.387Z,26.37
2017-09-30T08:17:46.893Z,21.80
2017-09-30T08:20:15.186Z,24.47
2017-09-30T08:22:42.688Z,22.33
2017-09-30T08:25:10.265Z,22.63
2017-09-30T08:27:37.773Z,21.03
2017-09-30T08:30:06.069Z,21.13
2017-09-30T08:32:33.562Z,19.20
2017-09-30T08:35:01.100Z,19.30
2017-09-30T08:37:28.601Z,19.87
2017-09-30T08:39:56.160Z,20.60
2017-09-30T08:42:23.706Z,19.83
2017-09-30T08:44:51.250Z,18.77
2017-09-30T08:47:18.758Z,20.93
2017-09-30T08:49:47.043Z,21.40
2017-09-30T08:52:14.536Z,22.37
2017-09-30T08:54:42.062Z,18.63
2017-09-30T08:57:09.574Z,19.10
2017-09-30T08:59:37.092Z,23.87
2017-09-30T09:02:05.363Z,20.30
2017-09-30T09:04:32.878Z,18.33
2017-09-30T09:07:00.363Z,25.07
2017-09-30T09:09:27.890Z,19.63
2017-09-30T09:11:56.220Z,19.43
2017-09-30T09:14:25.897Z,17.80
2017-09-30T09:16:53.416Z,16.37
2017-09-30T09:19:20.915Z,17.43
2017-09-30T09:21:49.232Z,19.50
2017-09-30T09:24:16.801Z,15.87
2017-09-30T09:26:44.336Z,16.67
2017-09-30T09:29:11.834Z,16.80
2017-09-30T09:31:39.344Z,17.23
2017-09-30T09:34:06.934Z,16.80
2017-09-30T09:36:34.461Z,16.73
2017-09-30T09:39:02.806Z,15.17
2017-09-30T09:41:31.096Z,16.60
2017-09-30T09:43:58.596Z,18.97
2017-09-30T09:46:27.763Z,16.17
2017-09-30T09:48:55.609Z,15.37
2017-09-30T09:51:23.132Z,17.83
2017-09-30T09:53:50.639Z,18.40
2017-09-30T09:56:18.166Z,17.33
2017-09-30T09:58:46.437Z,15.73
2017-09-30T10:01:14.712Z,14.33
2017-09-30T10:03:42.219Z,16.87
2017-09-30T10:06:09.748Z,15.23
2017-09-30T10:08:37.241Z,15.80
2017-09-30T10:11:04.772Z,15.77
2017-09-30T10:13:32.281Z,16.10
2017-09-30T10:15:59.824Z,13.50
2017-09-30T10:18:27.346Z,12.23
2017-09-30T10:20:54.841Z,17.27
2017-09-30T10:23:23.120Z,15.33
2017-09-30T10:25:50.615Z,16.77
2017-09-30T10:28:18.144Z,25.73
2017-09-30T10:30:47.668Z,14.90
2017-09-30T10:33:24.042Z,14.40
2017-09-30T10:35:52.472Z,17.37
2017-09-30T10:38:19.986Z,21.20
2017-09-30T10:40:47.490Z,14.40
2017-09-30T10:43:15.016Z,18.87
2017-09-30T10:45:43.275Z,19.43
2017-09-30T10:48:11.728Z,16.60
2017-09-30T10:50:39.226Z,13.30
2017-09-30T10:53:06.738Z,15.83
2017-09-30T10:55:34.253Z,14.40
2017-09-30T10:58:01.800Z,16.03
2017-09-30T11:00:29.297Z,13.67
2017-09-30T11:02:56.912Z,13.70
2017-09-30T11:05:24.395Z,13.67
2017-09-30T11:07:51.920Z,17.30
2017-09-30T11:10:27.405Z,13.80
2017-09-30T11:12:54.908Z,14.97
2017-09-30T11:15:22.425Z,14.20
2017-09-30T11:17:49.935Z,35.60
2017-09-30T11:20:18.200Z,15.80
2017-09-30T11:22:46.469Z,20.87
2017-09-30T11:25:14.000Z,17.40
2017-09-30T11:27:42.298Z,17.50
2017-09-30T11:30:09.815Z,17.27
2017-09-30T11:32:37.313Z,18.80
2017-09-30T11:35:04.832Z,18.77
2017-09-30T11:37:32.336Z,20.37
2017-09-30T11:40:20.154Z,17.43
2017-09-30T11:42:47.764Z,16.80
2017-09-30T11:45:15.389Z,19.07
2017-09-30T11:47:42.951Z,21.00
2017-09-30T11:50:11.451Z,16.73
2017-09-30T11:52:39.817Z,16.47
2017-09-30T11:55:07.360Z,23.60
2017-09-30T11:57:35.637Z,19.07
2017-09-30T12:00:03.163Z,15.03
2017-09-30T12:02:32.550Z,18.70
2017-09-30T12:05:09.586Z,20.70
2017-09-30T12:07:37.189Z,17.13
2017-09-30T12:10:04.865Z,16.43
2017-09-30T12:12:32.455Z,17.33
2017-09-30T12:15:14.006Z,17.30
2017-09-30T12:17:51.147Z,16.97
2017-09-30T12:20:19.378Z,15.53
2017-09-30T12:22:46.923Z,16.60
2017-09-30T12:25:15.042Z,15.90
2017-09-30T12:27:44.276Z,16.63
2017-09-30T12:30:12.861Z,16.27
2017-09-30T12:32:40.647Z,16.70
2017-09-30T12:35:08.950Z,17.10
2017-09-30T12:37:37.629Z,16.30
2017-09-30T12:40:05.338Z,16.47
2017-09-30T12:42:32.860Z,17.13
2017-09-30T12:45:01.287Z,15.73
2017-09-30T12:47:29.358Z,13.17
2017-09-30T12:49:56.953Z,15.07
2017-09-30T12:52:24.439Z,15.63
2017-09-30T12:54:52.881Z,13.47
2017-09-30T12:57:20.405Z,14.40
2017-09-30T12:59:48.060Z,17.77
2017-09-30T13:02:16.048Z,16.60
2017-09-30T13:08:03.301Z,17.57
2017-09-30T13:10:30.875Z,14.90
2017-09-30T13:12:59.391Z,17.93
2017-09-30T13:15:35.088Z,15.10
2017-09-30T13:18:02.683Z,16.00
2017-09-30T13:20:36.646Z,14.73
2017-09-30T13:23:04.213Z,15.57
2017-09-30T13:25:31.857Z,15.63
2017-09-30T13:27:59.391Z,15.50
2017-09-30T13:30:27.691Z,16.83
2017-09-30T13:32:55.315Z,20.57
2017-09-30T13:35:22.829Z,19.53
2017-09-30T13:37:50.327Z,18.73
2017-09-30T13:40:17.868Z,17.03
2017-09-30T13:42:45.398Z,17.50
2017-09-30T13:45:13.076Z,20.50
2017-09-30T13:47:41.103Z,18.90
2017-09-30T13:50:10.856Z,17.00
2017-09-30T13:52:38.490Z,19.07
2017-09-30T13:55:06.029Z,24.13
2017-09-30T13:57:33.632Z,18.33
2017-09-30T14:00:02.740Z,19.43
2017-09-30T14:02:38.686Z,19.37
2017-09-30T14:05:09.990Z,22.60
2017-09-30T14:07:39.575Z,21.30
2017-09-30T14:10:12.355Z,19.20
2017-09-30T14:12:40.037Z,19.47
2017-09-30T14:15:09.623Z,20.73
2017-09-30T14:17:37.140Z,22.57
2017-09-30T14:20:04.637Z,23.70
2017-09-30T14:22:32.952Z,23.77
2017-09-30T14:25:05.195Z,26.00
2017-09-30T14:27:32.699Z,22.43
2017-09-30T14:30:00.956Z,21.03
2017-09-30T14:32:29.247Z,18.33
2017-09-30T14:34:56.744Z,15.70
2017-09-30T14:37:24.291Z,7.57
2017-09-30T14:39:51.779Z,4.00
2017-09-30T14:42:23.887Z,5.80
2017-09-30T14:44:51.993Z,6.60
2017-09-30T14:47:19.553Z,4.33
2017-09-30T14:49:47.123Z,7.47
2017-09-30T14:52:15.465Z,8.40
2017-09-30T14:54:43.025Z,6.20
2017-09-30T14:57:10.543Z,2.20
2017-09-30T14:59:42.940Z,4.30
2017-09-30T15:02:10.484Z,3.47
2017-09-30T15:04:38.108Z,1.90
2017-09-30T15:07:05.671Z,4.47
2017-09-30T15:09:33.156Z,3.67
2017-09-30T15:12:01.102Z,2.80
2017-09-30T15:14:28.604Z,2.30
2017-09-30T15:16:56.154Z,8.00
2017-09-30T15:19:24.423Z,3.60
2017-09-30T15:21:52.696Z,4.60
2017-09-30T15:24:20.939Z,2.50
2017-09-30T15:26:49.328Z,5.73
2017-09-30T15:29:16.836Z,2.80
2017-09-30T15:31:45.135Z,2.07
2017-09-30T15:34:12.768Z,1.90
2017-09-30T15:36:40.419Z,3.47
2017-09-30T15:39:08.664Z,1.90
2017-09-30T15:41:36.931Z,4.43
2017-09-30T15:44:05.185Z,3.33
2017-09-30T15:46:50.365Z,1.93
2017-09-30T15:49:17.856Z,2.67
2017-09-30T15:51:45.364Z,4.20
2017-09-30T15:54:12.872Z,3.20
2017-09-30T15:56:41.197Z,1.73
2017-09-30T15:59:08.700Z,8.80
2017-09-30T16:01:36.242Z,3.97
2017-09-30T16:04:03.724Z,3.00
2017-09-30T16:06:31.224Z,2.83
2017-09-30T16:08:58.714Z,3.37
2017-09-30T16:11:26.920Z,2.37
2017-09-30T16:13:54.410Z,2.23
2017-09-30T16:16:21.896Z,3.60
2017-09-30T16:18:49.409Z,3.13
2017-09-30T16:21:16.908Z,2.40
2017-09-30T16:23:44.420Z,2.43
2017-09-30T16:26:12.732Z,2.10
2017-09-30T16:28:41.241Z,4.40
2017-09-30T16:31:20.498Z,3.53
2017-09-30T16:33:48.009Z,2.57
2017-09-30T16:36:15.497Z,1.67
2017-09-30T16:38:43.077Z,3.23
2017-09-30T16:41:11.377Z,3.53
2017-09-30T16:43:38.879Z,4.60
2017-09-30T16:46:06.416Z,4.97
2017-09-30T16:48:33.965Z,3.97
2017-09-30T16:51:02.294Z,2.10
2017-09-30T16:53:43.204Z,1.97
2017-09-30T17:00:16.540Z,4.00
2017-09-30T17:02:44.105Z,3.50
2017-09-30T17:11:02.420Z,2.63
2017-09-30T17:13:29.965Z,2.37
2017-09-30T17:15:57.521Z,2.13
2017-09-30T17:18:37.968Z,2.03
2017-09-30T17:21:17.825Z,5.07
2017-09-30T17:23:45.373Z,4.73
2017-09-30T17:26:12.912Z,3.53
2017-09-30T17:28:41.226Z,2.50
2017-09-30T17:31:12.982Z,3.40
2017-09-30T17:33:40.499Z,2.43
2017-09-30T17:36:08.021Z,2.47
2017-09-30T17:38:35.540Z,3.40
2017-09-30T17:41:03.469Z,3.10
2017-09-30T17:43:30.984Z,3.67
2017-09-30T17:45:58.480Z,5.07
2017-09-30T17:48:25.987Z,3.20
2017-09-30T17:50:53.488Z,5.10
2017-09-30T17:53:21.172Z,3.37
2017-09-30T17:56:09.632Z,5.37
2017-09-30T17:58:37.904Z,6.43
2017-09-30T18:01:10.944Z,3.10
2017-09-30T18:03:38.451Z,4.27
2017-09-30T18:06:06.532Z,2.63
2017-09-30T18:08:34.088Z,4.53
2017-09-30T18:11:01.601Z,4.70
2017-09-30T18:13:29.108Z,3.53
2017-09-30T18:15:56.595Z,4.23
2017-09-30T18:18:24.114Z,3.20
2017-09-30T18:20:51.627Z,3.73
2017-09-30T18:23:19.893Z,4.17
2017-09-30T18:25:47.380Z,4.00
2017-09-30T18:28:14.884Z,2.83
2017-09-30T18:30:42.430Z,4.27
2017-09-30T18:33:09.951Z,3.57
2017-09-30T18:35:38.211Z,6.23
2017-09-30T18:38:06.506Z,4.50
2017-09-30T18:40:34.000Z,3.53
2017-09-30T18:43:04.191Z,6.17
2017-09-30T18:45:51.407Z,3.97
2017-09-30T18:48:18.925Z,3.47
2017-09-30T18:50:46.440Z,3.70
2017-09-30T18:53:13.971Z,4.80
2017-09-30T18:55:41.449Z,8.17
2017-09-30T18:58:08.934Z,5.10
2017-09-30T19:00:37.218Z,5.87
2017-09-30T19:03:04.700Z,7.73
2017-09-30T19:05:32.212Z,5.53
2017-09-30T19:07:59.695Z,4.90
2017-09-30T19:10:27.204Z,7.57
2017-09-30T19:12:55.085Z,6.47
2017-09-30T19:15:22.607Z,6.40
2017-09-30T19:17:50.103Z,4.37
2017-09-30T19:20:18.377Z,3.57
2017-09-30T19:22:46.631Z,4.93
2017-09-30T19:25:14.911Z,5.43
2017-09-30T19:27:42.417Z,3.97
2017-09-30T19:30:09.936Z,3.17
2017-09-30T19:32:37.433Z,4.00
2017-09-30T19:35:04.941Z,8.20
2017-09-30T19:37:32.430Z,3.93
2017-09-30T19:39:59.928Z,3.77
2017-09-30T19:42:27.412Z,3.10
2017-09-30T19:44:54.927Z,3.93
2017-09-30T19:47:23.232Z,3.07
2017-09-30T19:49:50.749Z,3.70
2017-09-30T19:52:18.310Z,4.40
2017-09-30T19:54:45.845Z,4.63
2017-09-30T19:57:13.340Z,4.30
2017-09-30T19:59:45.612Z,6.13
2017-09-30T20:02:13.136Z,3.40
2017-09-30T20:04:40.648Z,9.13
2017-09-30T20:07:08.140Z,5.90
2017-09-30T20:09:36.432Z,5.00
2017-09-30T20:12:03.999Z,3.73
2017-09-30T20:14:31.578Z,4.00
2017-09-30T20:16:59.861Z,3.57
2017-09-30T20:19:28.153Z,4.17
2017-09-30T20:21:55.640Z,4.90
2017-09-30T20:24:23.168Z,3.33
2017-09-30T20:26:50.660Z,5.00
2017-09-30T20:29:18.210Z,8.87
2017-09-30T20:31:45.733Z,5.90
2017-09-30T20:34:13.286Z,6.40
2017-09-30T20:36:40.814Z,5.87
2017-09-30T20:39:08.437Z,4.70
2017-09-30T20:41:36.767Z,6.90
2017-09-30T20:44:04.260Z,3.43
2017-09-30T20:46:32.532Z,9.33
2017-09-30T20:49:00.821Z,7.13
2017-09-30T20:51:28.336Z,4.73
2017-09-30T20:53:56.575Z,9.00
2017-09-30T20:56:24.849Z,6.60
2017-09-30T20:58:53.096Z,6.17
2017-09-30T21:01:20.598Z,11.37
2017-09-30T21:03:48.079Z,7.40
2017-09-30T21:06:15.604Z,6.50
2017-09-30T21:08:43.092Z,7.23
2017-09-30T21:11:10.612Z,10.47
2017-09-30T21:13:38.109Z,7.50
2017-09-30T21:16:05.612Z,9.93
2017-09-30T21:18:33.860Z,8.20
2017-09-30T21:21:02.136Z,7.03
2017-09-30T21:23:30.383Z,6.60
2017-09-30T21:25:58.652Z,9.23
2017-09-30T21:28:26.901Z,7.10
2017-09-30T21:30:55.167Z,7.37
2017-09-30T21:33:23.420Z,12.67
2017-09-30T21:35:50.915Z,5.60
2017-09-30T21:38:18.393Z,7.80
2017-09-30T21:40:45.903Z,6.63
2017-09-30T21:43:13.391Z,4.90
2017-09-30T21:45:41.678Z,5.73
2017-09-30T21:48:09.941Z,9.13
2017-09-30T21:50:37.421Z,6.50
2017-09-30T21:53:04.916Z,4.60
2017-09-30T21:55:32.408Z,6.70
2017-09-30T21:57:59.909Z,11.00
2017-09-30T22:00:27.401Z,7.03
2017-09-30T22:02:54.903Z,6.03
2017-09-30T22:05:22.379Z,5.20
2017-09-30T22:07:49.880Z,5.20
2017-09-30T22:10:17.370Z,6.30
2017-09-30T22:12:44.877Z,10.93
2017-09-30T22:15:12.368Z,6.53
2017-09-30T22:17:39.868Z,8.43
2017-09-30T22:20:07.351Z,8.07
2017-09-30T22:22:34.859Z,8.67
2017-09-30T22:25:02.360Z,8.10
2017-09-30T22:27:30.627Z,7.90
2017-09-30T22:29:58.880Z,11.60
2017-09-30T22:32:27.151Z,9.90
2017-09-30T22:34:54.648Z,13.10
2017-09-30T22:37:22.150Z,17.40
2017-09-30T22:39:49.635Z,11.60
2017-09-30T22:42:17.155Z,10.60
2017-09-30T22:44:44.637Z,10.40
2017-09-30T22:47:12.171Z,13.90
2017-09-30T22:49:39.669Z,13.23
2017-09-30T22:52:07.185Z,11.90
2017-09-30T22:54:34.684Z,16.60
2017-09-30T22:57:02.197Z,14.13
2017-09-30T22:59:29.683Z,10.60
2017-09-30T23:01:57.204Z,11.27
2017-09-30T23:04:24.682Z,15.10
2017-09-30T23:06:52.956Z,10.10
2017-09-30T23:09:20.451Z,15.77
2017-09-30T23:11:47.952Z,14.30
2017-09-30T23:14:15.444Z,12.53
2017-09-30T23:16:42.967Z,10.43
2017-09-30T23:19:10.459Z,11.20
2017-09-30T23:21:38.028Z,12.70
2017-09-30T23:24:05.525Z,12.53
2017-09-30T23:26:33.047Z,10.47
2017-09-30T23:29:00.552Z,8.03
2017-09-30T23:31:28.040Z,10.10
2017-09-30T23:33:55.555Z,14.33
2017-09-30T23:36:23.046Z,11.03
2017-09-30T23:38:50.565Z,12.60
2017-09-30T23:41:18.047Z,10.20
2017-09-30T23:43:46.343Z,11.50
2017-09-30T23:46:13.831Z,11.47
2017-09-30T23:48:41.360Z,11.00
2017-09-30T23:51:08.848Z,9.63
2017-09-30T23:53:36.359Z,10.90
2017-09-30T23:56:03.849Z,9.60
2017-09-30T23:58:31.359Z,9.80
